createdAt,value
2019-04-25T00:02:01.871Z,100.00
2019-04-25T00:04:31.531Z,100.00
2019-04-25T00:07:00.065Z,100.00
2019-04-25T00:09:31.722Z,100.00
2019-04-25T00:12:00.299Z,100.00
2019-04-25T00:14:31.490Z,100.00
2019-04-25T00:17:01.609Z,100.00
2019-04-25T00:19:31.666Z,100.00
2019-04-25T00:22:02.125Z,100.00
2019-04-25T00:24:34.859Z,100.00
2019-04-25T00:27:03.535Z,100.00
2019-04-25T00:29:32.002Z,100.00
2019-04-25T00:32:01.656Z,100.00
2019-04-25T00:34:31.661Z,100.00
2019-04-25T00:37:02.323Z,100.00
2019-04-25T00:39:31.956Z,100.00
2019-04-25T00:42:02.201Z,100.00
2019-04-25T00:44:31.934Z,100.00
2019-04-25T00:47:02.309Z,100.00
2019-04-25T00:49:32.090Z,100.00
2019-04-25T00:52:01.977Z,100.00
2019-04-25T00:54:31.366Z,100.00
2019-04-25T00:56:59.975Z,100.00
2019-04-25T00:59:43.902Z,100.00
2019-04-25T01:02:29.334Z,100.00
2019-04-25T01:04:57.771Z,100.00
2019-04-25T01:07:26.182Z,100.00
2019-04-25T01:09:54.687Z,100.00
2019-04-25T01:12:23.173Z,100.00
2019-04-25T01:14:52.813Z,100.00
2019-04-25T01:17:22.943Z,100.00
2019-04-25T01:19:51.434Z,100.00
2019-04-25T01:22:19.841Z,100.00
2019-04-25T01:24:49.327Z,100.00
2019-04-25T01:27:17.975Z,100.00
2019-04-25T01:29:47.778Z,100.00
2019-04-25T01:32:17.957Z,100.00
2019-04-25T01:34:50.901Z,100.00
2019-04-25T01:37:23.950Z,100.00
2019-04-25T01:39:55.309Z,100.00
2019-04-25T01:42:34.870Z,100.00
2019-04-25T01:45:04.151Z,100.00
2019-04-25T01:47:33.646Z,100.00
2019-04-25T01:50:03.829Z,100.00
2019-04-25T01:52:33.452Z,100.00
2019-04-25T01:55:03.474Z,100.00
2019-04-25T01:57:33.657Z,100.00
2019-04-25T02:00:03.920Z,100.00
2019-04-25T02:02:33.569Z,100.00
2019-04-25T02:05:03.988Z,100.00
2019-04-25T02:07:33.358Z,100.00
2019-04-25T02:10:03.661Z,100.00
2019-04-25T02:12:33.905Z,100.00
2019-04-25T02:15:05.953Z,100.00
2019-04-25T02:17:34.046Z,100.00
2019-04-25T02:20:04.489Z,100.00
2019-04-25T02:22:33.952Z,100.00
2019-04-25T02:25:04.561Z,100.00
2019-04-25T02:27:34.207Z,100.00
2019-04-25T02:30:04.352Z,100.00
2019-04-25T02:32:34.397Z,100.00
2019-04-25T02:35:09.096Z,100.00
2019-04-25T02:37:35.197Z,100.00
2019-04-25T02:40:07.716Z,100.00
2019-04-25T02:42:35.683Z,100.00
2019-04-25T02:45:26.422Z,100.00
2019-04-25T02:48:14.121Z,100.00
2019-04-25T02:50:46.178Z,100.00
2019-04-25T02:53:36.324Z,100.00
2019-04-25T02:56:07.960Z,100.00
2019-04-25T02:58:34.241Z,100.00
2019-04-25T03:01:16.212Z,100.00
2019-04-25T03:03:35.042Z,100.00
2019-04-25T03:06:06.017Z,100.00
2019-04-25T03:08:35.453Z,100.00
2019-04-25T03:11:05.768Z,100.00
2019-04-25T03:13:34.371Z,100.00
2019-04-25T03:16:06.102Z,100.00
2019-04-25T03:18:34.950Z,100.00
2019-04-25T03:21:17.208Z,100.00
2019-04-25T03:23:46.377Z,100.00
2019-04-25T03:26:15.027Z,100.00
2019-04-25T03:28:43.905Z,100.00
2019-04-25T03:31:18.658Z,100.00
2019-04-25T03:33:45.980Z,100.00
2019-04-25T03:36:14.255Z,100.00
2019-04-25T03:38:44.188Z,100.00
2019-04-25T03:41:13.229Z,100.00
2019-04-25T03:43:44.224Z,100.00
2019-04-25T03:46:14.270Z,100.00
2019-04-25T03:48:44.059Z,100.00
2019-04-25T03:51:15.354Z,100.00
2019-04-25T03:53:43.743Z,100.00
2019-04-25T03:56:12.955Z,100.00
2019-04-25T03:58:43.904Z,100.00
2019-04-25T04:01:13.839Z,100.00
2019-04-25T04:03:44.021Z,100.00
2019-04-25T04:06:14.251Z,100.00
2019-04-25T04:08:44.268Z,100.00
2019-04-25T04:11:14.516Z,100.00
2019-04-25T04:13:43.968Z,100.00
2019-04-25T04:16:14.320Z,100.00
2019-04-25T04:18:44.960Z,100.00
2019-04-25T04:21:27.019Z,100.00
2019-04-25T04:24:00.286Z,100.00
2019-04-25T04:26:28.760Z,100.00
2019-04-25T04:28:57.190Z,100.00
2019-04-25T04:31:25.601Z,100.00
2019-04-25T04:33:54.033Z,100.00
2019-04-25T04:36:23.770Z,100.00
2019-04-25T04:38:52.731Z,100.00
2019-04-25T04:41:23.852Z,100.00
2019-04-25T04:43:54.024Z,100.00
2019-04-25T04:46:24.031Z,100.00
2019-04-25T04:48:54.079Z,100.00
2019-04-25T04:51:23.773Z,100.00
2019-04-25T04:53:53.689Z,100.00
2019-04-25T04:56:23.922Z,100.00
2019-04-25T04:58:53.968Z,100.00
2019-04-25T05:01:24.720Z,100.00
2019-04-25T05:03:54.917Z,100.00
2019-04-25T05:06:27.817Z,100.00
2019-04-25T05:08:57.931Z,100.00
2019-04-25T05:11:26.365Z,100.00
2019-04-25T05:13:54.772Z,100.00
2019-04-25T05:16:23.793Z,100.00
2019-04-25T05:18:55.090Z,100.00
2019-04-25T05:21:22.658Z,100.00
2019-04-25T05:23:51.040Z,100.00
2019-04-25T05:26:19.549Z,100.00
2019-04-25T05:28:47.956Z,100.00
2019-04-25T05:31:25.511Z,100.00
2019-04-25T05:33:54.109Z,100.00
2019-04-25T05:36:24.902Z,100.00
2019-04-25T05:38:53.899Z,100.00
2019-04-25T05:41:25.222Z,100.00
2019-04-25T05:43:53.700Z,100.00
2019-04-25T05:46:22.136Z,100.00
2019-04-25T05:48:50.542Z,100.00
2019-04-25T05:51:19.535Z,100.00
2019-04-25T05:53:48.127Z,100.00
2019-04-25T05:56:16.566Z,100.00
2019-04-25T05:58:44.974Z,100.00
2019-04-25T06:01:13.507Z,100.00
2019-04-25T06:03:41.903Z,100.00
2019-04-25T06:06:10.380Z,100.00
2019-04-25T06:08:40.454Z,100.00
2019-04-25T06:11:28.858Z,100.00
2019-04-25T06:14:02.980Z,100.00
2019-04-25T06:16:33.368Z,100.00
2019-04-25T06:19:13.603Z,100.00
2019-04-25T06:21:33.844Z,100.00
2019-04-25T06:24:15.524Z,100.00
2019-04-25T06:26:58.615Z,100.00
2019-04-25T06:29:27.025Z,100.00
2019-04-25T06:32:05.724Z,100.00
2019-04-25T06:34:28.388Z,100.00
2019-04-25T06:36:55.811Z,100.00
2019-04-25T06:39:25.329Z,100.00
2019-04-25T06:41:54.191Z,100.00
2019-04-25T06:44:29.963Z,100.00
2019-04-25T06:47:00.010Z,100.00
2019-04-25T06:49:30.081Z,100.00
2019-04-25T06:51:58.491Z,100.00
2019-04-25T06:54:28.047Z,100.00
2019-04-25T06:56:56.622Z,100.00
2019-04-25T06:59:27.224Z,100.00
2019-04-25T07:01:56.222Z,100.00
2019-04-25T07:04:26.448Z,100.00
2019-04-25T07:06:55.031Z,100.00
2019-04-25T07:09:26.788Z,100.00
2019-04-25T07:11:53.927Z,100.00
2019-04-25T07:14:24.833Z,100.00
2019-04-25T07:16:53.280Z,100.00
2019-04-25T07:19:21.961Z,100.00
2019-04-25T07:21:50.371Z,100.00
2019-04-25T07:24:18.826Z,100.00
2019-04-25T07:27:05.230Z,95.63
2019-04-25T07:29:35.714Z,95.68
2019-04-25T07:32:22.145Z,95.42
2019-04-25T07:34:50.646Z,91.72
2019-04-25T07:37:19.054Z,90.38
2019-04-25T07:39:47.557Z,89.22
2019-04-25T07:42:15.967Z,90.93
2019-04-25T07:44:52.262Z,91.85
2019-04-25T07:47:15.947Z,88.72
2019-04-25T07:49:44.535Z,84.58
2019-04-25T07:52:13.582Z,85.79
2019-04-25T07:54:47.984Z,82.67
2019-04-25T07:57:16.389Z,82.44
2019-04-25T07:59:44.817Z,80.74
2019-04-25T08:02:13.450Z,82.16
2019-04-25T08:04:41.904Z,80.29
2019-04-25T08:07:10.310Z,78.23
2019-04-25T08:09:38.741Z,78.24
2019-04-25T08:12:07.282Z,79.95
2019-04-25T08:14:54.230Z,79.79
2019-04-25T08:17:40.386Z,82.75
2019-04-25T08:20:09.255Z,80.27
2019-04-25T08:22:50.152Z,77.38
2019-04-25T08:25:08.151Z,76.96
2019-04-25T08:27:36.782Z,73.56
2019-04-25T08:30:06.677Z,72.98
2019-04-25T08:32:36.363Z,71.18
2019-04-25T08:35:06.032Z,63.71
2019-04-25T08:37:35.395Z,65.06
2019-04-25T08:40:06.433Z,69.84
2019-04-25T08:42:35.850Z,67.46
2019-04-25T08:45:06.875Z,67.62
2019-04-25T08:47:36.115Z,64.03
2019-04-25T08:50:26.349Z,67.35
2019-04-25T08:52:44.216Z,63.59
2019-04-25T08:55:31.360Z,62.62
2019-04-25T08:58:03.718Z,61.00
2019-04-25T09:00:35.736Z,60.26
2019-04-25T09:03:15.237Z,60.75
2019-04-25T09:05:46.232Z,59.77
2019-04-25T09:08:15.013Z,60.32
2019-04-25T09:10:44.804Z,60.46
2019-04-25T09:13:13.552Z,59.64
2019-04-25T09:15:41.903Z,59.43
2019-04-25T09:18:10.335Z,58.06
2019-04-25T09:20:40.880Z,58.43
2019-04-25T09:23:08.899Z,58.62
2019-04-25T09:25:37.301Z,57.26
2019-04-25T09:28:06.008Z,57.59
2019-04-25T09:30:35.832Z,56.40
2019-04-25T09:33:04.779Z,57.62
2019-04-25T09:35:33.652Z,59.93
2019-04-25T09:38:03.385Z,61.14
2019-04-25T09:40:31.861Z,60.45
2019-04-25T09:43:00.830Z,60.04
2019-04-25T09:45:33.833Z,59.24
2019-04-25T09:48:18.699Z,58.67
2019-04-25T09:50:48.743Z,57.49
2019-04-25T09:53:23.183Z,58.45
2019-04-25T09:55:55.727Z,58.06
2019-04-25T09:58:31.606Z,56.55
2019-04-25T10:01:10.438Z,57.14
2019-04-25T10:03:39.030Z,56.42
2019-04-25T10:06:07.503Z,56.74
2019-04-25T10:08:36.904Z,55.26
2019-04-25T10:11:05.529Z,53.39
2019-04-25T10:13:34.021Z,54.26
2019-04-25T10:16:05.074Z,54.31
2019-04-25T10:18:34.154Z,53.58
2019-04-25T10:21:04.854Z,53.27
2019-04-25T10:23:34.301Z,53.39
2019-04-25T10:26:03.813Z,53.18
2019-04-25T10:28:33.601Z,52.16
2019-04-25T10:31:03.561Z,52.12
2019-04-25T10:33:32.203Z,54.51
2019-04-25T10:36:01.190Z,53.38
2019-04-25T10:38:29.942Z,55.37
2019-04-25T10:40:58.531Z,53.24
2019-04-25T10:43:26.961Z,54.08
2019-04-25T10:45:55.428Z,53.38
2019-04-25T10:48:24.162Z,51.71
2019-04-25T10:50:55.433Z,51.00
2019-04-25T10:53:23.220Z,50.29
2019-04-25T10:55:53.071Z,50.53
2019-04-25T10:58:21.493Z,49.14
2019-04-25T11:00:52.832Z,48.82
2019-04-25T11:03:24.180Z,50.11
2019-04-25T11:05:55.663Z,49.96
2019-04-25T11:08:24.489Z,48.91
2019-04-25T11:10:54.930Z,49.62
2019-04-25T11:13:23.571Z,49.96
2019-04-25T11:15:52.116Z,48.54
2019-04-25T11:18:20.621Z,49.58
2019-04-25T11:20:50.298Z,48.83
2019-04-25T11:23:18.908Z,48.23
2019-04-25T11:25:47.377Z,48.13
2019-04-25T11:28:15.853Z,47.67
2019-04-25T11:30:46.753Z,46.54
2019-04-25T11:33:15.519Z,46.11
2019-04-25T11:35:46.608Z,46.55
2019-04-25T11:38:15.774Z,47.67
2019-04-25T11:40:48.088Z,46.41
2019-04-25T11:43:16.115Z,46.00
2019-04-25T11:45:45.937Z,46.19
2019-04-25T11:48:14.430Z,46.50
2019-04-25T11:50:46.126Z,46.18
2019-04-25T11:53:13.127Z,44.61
2019-04-25T11:55:42.579Z,44.07
2019-04-25T11:58:11.010Z,42.41
2019-04-25T12:00:39.439Z,42.32
2019-04-25T12:03:08.379Z,43.64
2019-04-25T12:05:36.811Z,44.96
2019-04-25T12:08:05.353Z,42.89
2019-04-25T12:10:34.596Z,42.71
2019-04-25T12:13:03.110Z,42.78
2019-04-25T12:15:33.265Z,41.48
2019-04-25T12:18:01.796Z,43.03
2019-04-25T12:20:30.291Z,41.78
2019-04-25T12:23:08.096Z,39.95
2019-04-25T12:25:28.924Z,42.60
2019-04-25T12:27:57.325Z,42.64
2019-04-25T12:30:37.402Z,41.55
2019-04-25T12:32:56.910Z,41.56
2019-04-25T12:35:25.400Z,42.75
2019-04-25T12:37:55.182Z,42.93
2019-04-25T12:40:24.289Z,42.87
2019-04-25T12:42:52.798Z,41.43
2019-04-25T12:45:37.865Z,40.93
2019-04-25T12:48:08.181Z,41.26
2019-04-25T12:50:36.619Z,41.90
2019-04-25T12:53:05.292Z,41.48
2019-04-25T12:55:34.251Z,42.15
2019-04-25T12:58:03.493Z,42.01
2019-04-25T13:00:32.186Z,42.01
2019-04-25T13:03:01.389Z,41.27
2019-04-25T13:05:30.067Z,41.52
2019-04-25T13:07:59.850Z,41.15
2019-04-25T13:10:28.600Z,40.54
2019-04-25T13:12:57.099Z,39.99
2019-04-25T13:15:27.039Z,40.97
2019-04-25T13:17:55.887Z,40.07
2019-04-25T13:20:24.294Z,41.01
2019-04-25T13:22:53.281Z,39.55
2019-04-25T13:25:24.292Z,40.55
2019-04-25T13:27:57.587Z,39.76
2019-04-25T13:30:31.189Z,39.05
2019-04-25T13:33:04.449Z,39.53
2019-04-25T13:35:34.540Z,39.75
2019-04-25T13:38:02.970Z,39.85
2019-04-25T13:40:31.378Z,39.43
2019-04-25T13:43:00.096Z,38.85
2019-04-25T13:45:28.724Z,38.95
2019-04-25T13:47:57.160Z,40.18
2019-04-25T13:50:26.097Z,40.30
2019-04-25T13:52:54.739Z,40.74
2019-04-25T13:55:23.990Z,40.09
2019-04-25T13:57:54.859Z,39.96
2019-04-25T14:00:25.133Z,39.88
2019-04-25T14:02:54.483Z,39.52
2019-04-25T14:05:24.931Z,41.23
2019-04-25T14:07:54.601Z,39.25
2019-04-25T14:10:25.021Z,39.67
2019-04-25T14:12:53.708Z,39.64
2019-04-25T14:15:25.134Z,40.59
2019-04-25T14:18:13.636Z,39.01
2019-04-25T14:20:56.058Z,39.28
2019-04-25T14:23:25.565Z,39.62
2019-04-25T14:25:54.173Z,39.40
2019-04-25T14:28:23.453Z,38.74
2019-04-25T14:30:52.876Z,38.39
2019-04-25T14:33:22.380Z,38.83
2019-04-25T14:35:54.625Z,39.14
2019-04-25T14:38:22.704Z,38.51
2019-04-25T14:40:51.791Z,39.30
2019-04-25T14:43:20.293Z,39.40
2019-04-25T14:45:48.767Z,37.66
2019-04-25T14:48:17.196Z,38.17
2019-04-25T14:50:45.595Z,39.41
2019-04-25T14:53:14.038Z,39.62
2019-04-25T14:55:52.810Z,38.23
2019-04-25T14:58:22.978Z,38.39
2019-04-25T15:00:52.236Z,39.18
2019-04-25T15:03:20.687Z,39.35
2019-04-25T15:05:49.093Z,39.43
2019-04-25T15:08:17.496Z,39.72
2019-04-25T15:10:48.341Z,38.98
2019-04-25T15:13:16.045Z,38.44
2019-04-25T15:15:44.541Z,38.88
2019-04-25T15:18:12.949Z,39.21
2019-04-25T15:20:41.372Z,38.38
2019-04-25T15:23:09.781Z,38.86
2019-04-25T15:25:39.212Z,39.11
2019-04-25T15:28:07.765Z,38.24
2019-04-25T15:30:38.299Z,38.22
2019-04-25T15:33:06.658Z,39.23
2019-04-25T15:35:45.634Z,39.78
2019-04-25T15:38:15.679Z,40.33
2019-04-25T15:40:54.318Z,40.34
2019-04-25T15:43:26.189Z,41.53
2019-04-25T15:45:56.158Z,41.34
2019-04-25T15:48:25.231Z,40.11
2019-04-25T15:50:55.382Z,41.49
2019-04-25T15:53:24.088Z,41.51
2019-04-25T15:55:53.530Z,41.60
2019-04-25T15:58:22.012Z,40.96
2019-04-25T16:00:50.503Z,41.92
2019-04-25T16:03:19.079Z,41.27
2019-04-25T16:05:47.584Z,41.22
2019-04-25T16:08:15.984Z,41.71
2019-04-25T16:10:44.415Z,41.29
2019-04-25T16:13:13.087Z,41.26
2019-04-25T16:15:41.630Z,41.49
2019-04-25T16:18:10.665Z,41.21
2019-04-25T16:20:39.101Z,42.04
2019-04-25T16:23:07.943Z,42.28
2019-04-25T16:25:36.371Z,42.13
2019-04-25T16:28:04.987Z,42.20
2019-04-25T16:30:34.581Z,42.39
2019-04-25T16:33:03.029Z,42.27
2019-04-25T16:35:31.457Z,42.46
2019-04-25T16:37:59.861Z,42.22
2019-04-25T16:40:28.681Z,42.88
2019-04-25T16:42:57.832Z,43.17
2019-04-25T16:45:26.313Z,43.75
2019-04-25T16:47:54.745Z,43.15
2019-04-25T16:50:23.914Z,42.53
2019-04-25T16:52:52.417Z,42.73
2019-04-25T16:55:20.895Z,42.82
2019-04-25T16:57:49.331Z,42.96
2019-04-25T17:00:36.267Z,43.18
2019-04-25T17:03:05.296Z,42.55
2019-04-25T17:05:34.939Z,42.56
2019-04-25T17:08:03.367Z,42.79
2019-04-25T17:10:32.797Z,42.70
2019-04-25T17:13:01.415Z,42.93
2019-04-25T17:15:41.062Z,42.63
2019-04-25T17:18:19.972Z,42.35
2019-04-25T17:20:50.085Z,42.78
2019-04-25T17:23:18.519Z,42.48
2019-04-25T17:25:46.986Z,42.53
2019-04-25T17:28:15.487Z,42.56
2019-04-25T17:30:45.531Z,42.63
2019-04-25T17:33:31.284Z,43.25
2019-04-25T17:36:08.266Z,43.01
2019-04-25T17:38:53.395Z,43.82
2019-04-25T17:41:21.795Z,44.09
2019-04-25T17:43:50.228Z,43.75
2019-04-25T17:46:20.266Z,43.92
2019-04-25T17:48:48.698Z,44.27
2019-04-25T17:51:17.103Z,44.20
2019-04-25T17:53:45.534Z,44.29
2019-04-25T17:56:14.010Z,44.50
2019-04-25T17:58:43.230Z,44.56
2019-04-25T18:01:13.861Z,44.95
2019-04-25T18:03:42.289Z,45.14
2019-04-25T18:06:10.702Z,45.33
2019-04-25T18:08:39.582Z,44.94
2019-04-25T18:11:08.546Z,44.42
2019-04-25T18:13:38.798Z,44.41
2019-04-25T18:16:08.810Z,43.82
2019-04-25T18:18:41.691Z,43.73
2019-04-25T18:21:10.159Z,43.81
2019-04-25T18:23:40.248Z,44.18
2019-04-25T18:26:15.792Z,45.10
2019-04-25T18:29:01.994Z,45.97
2019-04-25T18:31:30.397Z,46.83
2019-04-25T18:34:00.469Z,48.01
2019-04-25T18:36:37.398Z,48.59
2019-04-25T18:39:08.447Z,49.68
2019-04-25T18:41:41.796Z,49.85
2019-04-25T18:44:12.200Z,50.49
2019-04-25T18:46:42.571Z,50.94
2019-04-25T18:49:11.153Z,51.26
2019-04-25T18:51:40.631Z,51.88
2019-04-25T18:54:27.278Z,52.19
2019-04-25T18:57:09.297Z,52.91
2019-04-25T18:59:42.174Z,53.20
2019-04-25T19:02:18.081Z,53.89
2019-04-25T19:05:04.756Z,54.60
2019-04-25T19:07:33.230Z,55.24
2019-04-25T19:10:01.728Z,55.54
2019-04-25T19:12:30.132Z,55.76
2019-04-25T19:14:58.565Z,55.87
2019-04-25T19:17:26.973Z,55.45
2019-04-25T19:19:55.400Z,55.63
2019-04-25T19:22:23.801Z,55.85
2019-04-25T19:24:52.275Z,55.54
2019-04-25T19:27:23.922Z,55.47
2019-04-25T19:29:52.563Z,55.54
2019-04-25T19:32:21.004Z,55.56
2019-04-25T19:34:49.436Z,55.60
2019-04-25T19:37:17.841Z,55.79
2019-04-25T19:40:04.347Z,55.96
2019-04-25T19:42:34.404Z,56.22
2019-04-25T19:45:02.837Z,56.28
2019-04-25T19:47:31.235Z,56.67
2019-04-25T19:49:59.640Z,56.63
2019-04-25T19:52:29.714Z,56.76
2019-04-25T19:54:58.220Z,56.87
2019-04-25T19:57:26.652Z,56.96
2019-04-25T19:59:55.052Z,57.28
2019-04-25T20:02:33.942Z,57.54
2019-04-25T20:05:10.192Z,57.80
2019-04-25T20:07:42.552Z,58.03
2019-04-25T20:10:30.216Z,58.18
2019-04-25T20:12:58.627Z,58.78
2019-04-25T20:15:27.031Z,59.09
2019-04-25T20:17:55.458Z,59.34
2019-04-25T20:20:23.863Z,59.46
2019-04-25T20:22:52.457Z,59.59
2019-04-25T20:25:20.872Z,59.54
2019-04-25T20:27:49.308Z,59.68
2019-04-25T20:30:18.749Z,60.15
2019-04-25T20:32:47.363Z,60.17
2019-04-25T20:35:15.841Z,60.57
2019-04-25T20:37:44.927Z,61.03
2019-04-25T20:40:14.347Z,61.06
2019-04-25T20:42:42.776Z,60.97
2019-04-25T20:45:11.318Z,60.58
2019-04-25T20:47:39.751Z,60.29
2019-04-25T20:50:08.421Z,60.11
2019-04-25T20:52:38.199Z,59.80
2019-04-25T20:55:07.787Z,60.00
2019-04-25T20:57:36.219Z,59.66
2019-04-25T21:00:06.860Z,60.17
2019-04-25T21:02:35.292Z,59.94
2019-04-25T21:05:03.839Z,59.70
2019-04-25T21:07:32.267Z,60.18
2019-04-25T21:10:00.670Z,60.40
2019-04-25T21:12:29.866Z,60.27
2019-04-25T21:15:03.514Z,60.14
2019-04-25T21:17:33.826Z,59.79
2019-04-25T21:20:03.874Z,59.18
2019-04-25T21:22:32.303Z,59.09
2019-04-25T21:25:00.710Z,59.02
2019-04-25T21:27:29.184Z,59.03
2019-04-25T21:29:57.775Z,58.85
2019-04-25T21:32:26.206Z,59.47
2019-04-25T21:34:55.219Z,59.96
2019-04-25T21:37:24.256Z,60.50
2019-04-25T21:39:58.352Z,60.32
2019-04-25T21:42:31.364Z,60.34
2019-04-25T21:45:00.471Z,60.84
2019-04-25T21:47:28.959Z,61.23
2019-04-25T21:49:58.549Z,61.69
2019-04-25T21:52:27.313Z,62.33
2019-04-25T21:54:56.023Z,63.07
2019-04-25T21:57:25.103Z,63.70
2019-04-25T22:00:03.612Z,64.36
2019-04-25T22:02:24.017Z,64.94
2019-04-25T22:04:52.619Z,65.57
2019-04-25T22:07:21.894Z,66.02
2019-04-25T22:09:50.767Z,66.68
2019-04-25T22:12:19.418Z,66.87
2019-04-25T22:14:47.854Z,66.94
2019-04-25T22:17:16.427Z,67.56
2019-04-25T22:19:45.474Z,68.48
2019-04-25T22:22:14.273Z,69.33
2019-04-25T22:24:42.688Z,69.99
2019-04-25T22:27:12.730Z,70.72
2019-04-25T22:29:42.797Z,71.33
2019-04-25T22:32:12.845Z,71.54
2019-04-25T22:34:55.021Z,72.22
2019-04-25T22:37:23.498Z,72.62
2019-04-25T22:39:52.006Z,72.83
2019-04-25T22:42:20.407Z,73.41
2019-04-25T22:44:48.839Z,73.86
2019-04-25T22:47:17.714Z,74.42
2019-04-25T22:49:46.228Z,74.91
2019-04-25T22:52:14.913Z,75.10
2019-04-25T22:54:43.711Z,75.65
2019-04-25T22:57:12.722Z,75.69
2019-04-25T22:59:41.476Z,76.44
2019-04-25T23:02:26.520Z,77.03
2019-04-25T23:05:05.356Z,77.51
2019-04-25T23:07:26.962Z,77.76
2019-04-25T23:09:55.577Z,78.11
2019-04-25T23:12:24.167Z,78.48
2019-04-25T23:14:52.557Z,79.19
2019-04-25T23:17:20.993Z,79.67
2019-04-25T23:19:49.575Z,79.80
2019-04-25T23:22:18.008Z,80.42
2019-04-25T23:24:48.230Z,80.97
2019-04-25T23:27:27.270Z,81.07
2019-04-25T23:29:55.673Z,81.57
2019-04-25T23:32:24.279Z,82.26
2019-04-25T23:34:52.684Z,82.40
2019-04-25T23:37:21.115Z,82.57
2019-04-25T23:39:49.523Z,82.72
2019-04-25T23:42:17.966Z,83.22
2019-04-25T23:44:46.525Z,83.54
2019-04-25T23:47:14.957Z,83.74
2019-04-25T23:49:43.351Z,84.23
2019-04-25T23:52:12.993Z,84.63
2019-04-25T23:54:41.445Z,85.08
2019-04-25T23:57:10.043Z,85.36
2019-04-25T23:59:38.450Z,85.37
